createdAt,value
2019-01-25T00:00:31.406Z,-1.40
2019-01-25T00:03:00.582Z,-1.30
2019-01-25T00:05:29.149Z,-1.30
2019-01-25T00:07:57.633Z,-1.30
2019-01-25T00:10:26.058Z,-1.40
2019-01-25T00:12:54.485Z,-1.40
2019-01-25T00:15:23.067Z,-1.50
2019-01-25T00:17:51.599Z,-1.50
2019-01-25T00:20:20.097Z,-1.50
2019-01-25T00:22:48.564Z,-1.50
2019-01-25T00:25:17.055Z,-1.60
2019-01-25T00:27:45.495Z,-1.70
2019-01-25T00:30:15.851Z,-1.70
2019-01-25T00:32:44.283Z,-1.70
2019-01-25T00:35:12.744Z,-1.80
2019-01-25T00:37:41.168Z,-1.80
2019-01-25T00:40:20.769Z,-1.90
2019-01-25T00:42:49.279Z,-1.90
2019-01-25T00:45:17.825Z,-2.00
2019-01-25T00:47:46.245Z,-2.00
2019-01-25T00:50:17.784Z,-2.10
2019-01-25T00:52:46.845Z,-2.10
2019-01-25T00:55:15.387Z,-2.10
2019-01-25T00:57:43.864Z,-2.10
2019-01-25T01:00:17.777Z,-2.20
2019-01-25T01:02:46.620Z,-2.20
2019-01-25T01:05:15.795Z,-2.20
2019-01-25T01:07:44.712Z,-2.20
2019-01-25T01:10:14.143Z,-2.20
2019-01-25T01:12:42.844Z,-2.30
2019-01-25T01:15:13.419Z,-2.20
2019-01-25T01:17:42.296Z,-2.20
2019-01-25T01:20:13.349Z,-2.20
2019-01-25T01:22:41.782Z,-2.10
2019-01-25T01:25:12.257Z,-2.20
2019-01-25T01:27:40.691Z,-2.10
2019-01-25T01:30:17.749Z,-2.10
2019-01-25T01:32:46.178Z,-2.10
2019-01-25T01:35:14.660Z,-2.10
2019-01-25T01:37:43.256Z,-2.10
2019-01-25T01:40:21.532Z,-2.10
2019-01-25T01:42:44.988Z,-2.10
2019-01-25T01:45:13.954Z,-2.00
2019-01-25T01:47:42.366Z,-1.80
2019-01-25T01:50:13.233Z,-1.80
2019-01-25T01:52:41.728Z,-1.80
2019-01-25T01:55:10.386Z,-1.70
2019-01-25T01:57:38.797Z,-1.70
2019-01-25T02:00:10.299Z,-1.70
2019-01-25T02:02:38.778Z,-1.50
2019-01-25T02:05:08.548Z,-1.60
2019-01-25T02:07:36.954Z,-1.70
2019-01-25T02:10:11.380Z,-1.70
2019-01-25T02:12:39.887Z,-1.80
2019-01-25T02:15:10.843Z,-1.80
2019-01-25T02:17:39.263Z,-1.80
2019-01-25T02:20:10.765Z,-1.90
2019-01-25T02:22:39.206Z,-1.90
2019-01-25T02:25:07.775Z,-2.00
2019-01-25T02:27:36.202Z,-2.10
2019-01-25T02:30:07.929Z,-2.00
2019-01-25T02:32:36.361Z,-2.10
2019-01-25T02:35:06.515Z,-2.10
2019-01-25T02:37:34.945Z,-1.90
2019-01-25T02:40:04.520Z,-1.90
2019-01-25T02:42:33.367Z,-1.90
2019-01-25T02:45:01.908Z,-2.00
2019-01-25T02:47:30.408Z,-2.10
2019-01-25T02:49:58.919Z,-2.20
2019-01-25T02:52:27.418Z,-2.20
2019-01-25T02:54:55.855Z,-2.20
2019-01-25T02:57:24.272Z,-2.20
2019-01-25T02:59:52.683Z,-2.20
2019-01-25T03:02:21.124Z,-2.20
2019-01-25T03:04:49.535Z,-2.20
2019-01-25T03:07:18.125Z,-2.10
2019-01-25T03:09:46.533Z,-2.10
2019-01-25T03:12:14.960Z,-2.00
2019-01-25T03:14:43.399Z,-2.10
2019-01-25T03:17:11.889Z,-1.90
2019-01-25T03:19:40.408Z,-1.90
2019-01-25T03:22:08.909Z,-1.70
2019-01-25T03:24:37.372Z,-1.70
2019-01-25T03:27:05.778Z,-1.80
2019-01-25T03:29:34.214Z,-1.80
2019-01-25T03:32:02.629Z,-1.80
2019-01-25T03:34:31.067Z,-1.90
2019-01-25T03:36:59.695Z,-1.90
2019-01-25T03:39:28.153Z,-2.10
2019-01-25T03:41:56.585Z,-2.00
2019-01-25T03:44:24.987Z,-2.00
2019-01-25T03:46:53.483Z,-2.20
2019-01-25T03:49:21.925Z,-2.30
2019-01-25T03:51:50.325Z,-2.40
2019-01-25T03:54:18.767Z,-2.40
2019-01-25T03:56:47.999Z,-2.50
2019-01-25T03:59:16.515Z,-2.60
2019-01-25T04:01:45.835Z,-2.60
2019-01-25T04:04:14.269Z,-2.60
2019-01-25T04:06:42.683Z,-2.60
2019-01-25T04:09:11.151Z,-2.60
2019-01-25T04:11:39.582Z,-2.60
2019-01-25T04:14:08.076Z,-2.60
2019-01-25T04:16:36.492Z,-2.50
2019-01-25T04:19:05.037Z,-2.40
2019-01-25T04:21:33.551Z,-2.40
2019-01-25T04:24:01.963Z,-2.30
2019-01-25T04:26:30.389Z,-2.50
2019-01-25T04:28:58.800Z,-2.30
2019-01-25T04:31:27.205Z,-2.30
2019-01-25T04:33:55.725Z,-2.20
2019-01-25T04:36:24.133Z,-2.30
2019-01-25T04:38:52.569Z,-2.20
2019-01-25T04:41:20.964Z,-2.20
2019-01-25T04:43:49.451Z,-2.10
2019-01-25T04:46:17.866Z,-2.10
2019-01-25T04:48:46.271Z,-2.10
2019-01-25T04:51:14.707Z,-1.90
2019-01-25T04:53:43.210Z,-1.90
2019-01-25T04:56:11.613Z,-1.90
2019-01-25T04:58:40.040Z,-1.90
2019-01-25T05:01:09.308Z,-2.00
2019-01-25T05:03:38.454Z,-2.00
2019-01-25T05:06:07.112Z,-2.00
2019-01-25T05:08:35.683Z,-2.10
2019-01-25T05:11:06.067Z,-2.20
2019-01-25T05:13:34.547Z,-2.20
2019-01-25T05:16:03.070Z,-2.10
2019-01-25T05:18:31.474Z,-2.10
2019-01-25T05:20:59.903Z,-2.00
2019-01-25T05:23:28.305Z,-2.10
2019-01-25T05:25:56.747Z,-2.00
2019-01-25T05:28:25.166Z,-2.20
2019-01-25T05:30:56.295Z,-2.10
2019-01-25T05:33:24.718Z,-2.20
2019-01-25T05:35:53.140Z,-2.30
2019-01-25T05:38:21.640Z,-2.20
2019-01-25T05:40:50.052Z,-2.20
2019-01-25T05:43:18.541Z,-2.20
2019-01-25T05:45:47.028Z,-2.20
2019-01-25T05:48:15.453Z,-2.30
2019-01-25T05:50:43.850Z,-2.20
2019-01-25T05:53:12.268Z,-2.20
2019-01-25T05:55:40.754Z,-2.30
2019-01-25T05:58:10.428Z,-2.30
2019-01-25T06:00:43.394Z,-2.40
2019-01-25T06:03:14.334Z,-2.40
2019-01-25T06:05:43.185Z,-2.40
2019-01-25T06:08:29.940Z,-2.20
2019-01-25T06:10:59.877Z,-2.30
2019-01-25T06:13:28.286Z,-2.40
2019-01-25T06:15:56.724Z,-2.40
2019-01-25T06:18:25.188Z,-2.40
2019-01-25T06:20:55.590Z,-2.40
2019-01-25T06:23:24.268Z,-2.40
2019-01-25T06:25:53.927Z,-2.40
2019-01-25T06:28:22.785Z,-2.50
2019-01-25T06:30:51.265Z,-2.30
2019-01-25T06:33:19.689Z,-2.20
2019-01-25T06:35:48.118Z,-2.20
2019-01-25T06:38:16.622Z,-2.20
2019-01-25T06:40:45.126Z,-2.10
2019-01-25T06:43:13.572Z,-2.00
2019-01-25T06:45:41.978Z,-2.10
2019-01-25T06:48:10.972Z,-2.20
2019-01-25T06:50:39.376Z,-2.10
2019-01-25T06:53:07.784Z,-2.00
2019-01-25T06:55:36.209Z,-2.00
2019-01-25T06:58:10.666Z,-2.10
2019-01-25T07:00:46.541Z,-1.90
2019-01-25T07:03:14.948Z,-2.00
2019-01-25T07:05:43.391Z,-1.90
2019-01-25T07:08:13.437Z,-1.90
2019-01-25T07:10:41.859Z,-1.90
2019-01-25T07:13:10.286Z,-1.90
2019-01-25T07:15:38.691Z,-1.70
2019-01-25T07:18:08.763Z,-1.80
2019-01-25T07:20:37.254Z,-1.80
2019-01-25T07:23:05.793Z,-2.00
2019-01-25T07:25:34.232Z,-2.00
2019-01-25T07:28:02.663Z,-2.00
2019-01-25T07:30:31.151Z,-1.90
2019-01-25T07:32:59.567Z,-1.90
2019-01-25T07:35:27.991Z,-2.00
2019-01-25T07:37:56.396Z,-1.90
2019-01-25T07:40:25.391Z,-1.90
2019-01-25T07:42:54.770Z,-1.90
2019-01-25T07:45:23.337Z,-1.80
2019-01-25T07:47:51.753Z,-1.80
2019-01-25T07:50:20.528Z,-1.80
2019-01-25T07:52:48.951Z,-1.80
2019-01-25T07:55:17.375Z,-1.80
2019-01-25T07:57:45.912Z,-1.70
2019-01-25T08:00:16.276Z,-1.60
2019-01-25T08:02:44.877Z,-1.50
2019-01-25T08:05:13.719Z,-1.50
2019-01-25T08:07:42.363Z,-1.40
2019-01-25T08:10:13.873Z,-1.50
2019-01-25T08:12:42.401Z,-1.40
2019-01-25T08:15:14.017Z,-1.40
2019-01-25T08:17:42.427Z,-1.30
2019-01-25T08:20:12.889Z,-1.20
2019-01-25T08:22:41.357Z,-1.10
2019-01-25T08:25:10.409Z,-1.00
2019-01-25T08:27:38.878Z,-1.10
2019-01-25T08:30:22.115Z,-1.10
2019-01-25T08:32:51.662Z,-1.00
2019-01-25T08:35:21.150Z,-0.90
2019-01-25T08:37:49.791Z,-0.80
2019-01-25T08:40:18.977Z,-1.10
2019-01-25T08:42:47.532Z,-1.30
2019-01-25T08:45:17.154Z,-1.20
2019-01-25T08:47:45.809Z,-1.20
2019-01-25T08:50:17.018Z,-1.10
2019-01-25T08:52:45.453Z,-1.00
2019-01-25T08:55:14.097Z,-1.30
2019-01-25T08:57:42.516Z,-1.40
2019-01-25T09:00:19.681Z,-1.50
2019-01-25T09:02:48.093Z,-1.40
2019-01-25T09:05:17.473Z,-1.30
2019-01-25T09:07:45.956Z,-1.20
2019-01-25T09:10:21.883Z,-1.30
2019-01-25T09:12:50.318Z,-1.20
2019-01-25T09:15:22.660Z,-1.20
2019-01-25T09:17:51.583Z,-1.40
2019-01-25T09:20:21.737Z,-1.40
2019-01-25T09:22:50.172Z,-1.50
2019-01-25T09:25:18.853Z,-1.40
2019-01-25T09:27:48.034Z,-1.60
2019-01-25T09:30:18.900Z,-1.80
2019-01-25T09:32:47.498Z,-1.80
2019-01-25T09:35:16.870Z,-1.90
2019-01-25T09:37:45.359Z,-2.10
2019-01-25T09:40:16.793Z,-2.00
2019-01-25T09:42:45.205Z,-1.90
2019-01-25T09:45:13.698Z,-1.80
2019-01-25T09:47:42.135Z,-1.70
2019-01-25T09:50:16.150Z,-1.60
2019-01-25T09:52:44.713Z,-1.40
2019-01-25T09:55:15.672Z,-1.30
2019-01-25T09:57:44.090Z,-1.40
2019-01-25T10:00:21.145Z,-0.90
2019-01-25T10:02:49.574Z,-0.70
2019-01-25T10:05:17.992Z,-0.30
2019-01-25T10:07:46.397Z,-0.40
2019-01-25T10:10:14.963Z,-0.40
2019-01-25T10:12:43.736Z,-0.50
2019-01-25T10:15:21.073Z,-0.50
2019-01-25T10:17:49.525Z,-0.30
2019-01-25T10:20:19.316Z,-0.10
2019-01-25T10:22:47.876Z,0.10
2019-01-25T10:25:16.514Z,0.20
2019-01-25T10:27:45.021Z,0.30
2019-01-25T10:30:27.209Z,0.30
2019-01-25T10:32:55.666Z,0.50
2019-01-25T10:35:24.188Z,0.50
2019-01-25T10:37:53.334Z,0.50
2019-01-25T10:40:23.089Z,0.70
2019-01-25T10:42:53.141Z,0.90
2019-01-25T10:45:27.581Z,0.90
2019-01-25T10:47:56.022Z,1.00
2019-01-25T10:50:24.445Z,1.10
2019-01-25T10:52:52.942Z,1.30
2019-01-25T10:55:21.499Z,1.40
2019-01-25T10:57:50.004Z,1.30
2019-01-25T11:00:22.939Z,1.40
2019-01-25T11:02:57.873Z,1.40
2019-01-25T11:05:24.956Z,1.50
2019-01-25T11:07:53.463Z,1.30
2019-01-25T11:10:21.915Z,1.40
2019-01-25T11:12:50.315Z,1.00
2019-01-25T11:15:23.743Z,1.20
2019-01-25T11:17:52.267Z,1.30
2019-01-25T11:20:22.824Z,1.50
2019-01-25T11:22:51.386Z,1.60
2019-01-25T11:25:25.528Z,1.60
2019-01-25T11:27:53.951Z,1.60
2019-01-25T11:30:22.526Z,1.80
2019-01-25T11:32:50.960Z,1.90
2019-01-25T11:35:19.395Z,2.10
2019-01-25T11:37:47.904Z,2.00
2019-01-25T11:40:22.187Z,2.20
2019-01-25T11:42:50.605Z,2.50
2019-01-25T11:45:19.021Z,2.60
2019-01-25T11:47:47.689Z,2.90
2019-01-25T11:50:18.103Z,3.00
2019-01-25T11:52:46.560Z,2.40
2019-01-25T11:55:17.298Z,1.80
2019-01-25T11:57:45.870Z,1.90
2019-01-25T12:00:23.265Z,1.80
2019-01-25T12:02:52.053Z,2.00
2019-01-25T12:05:22.186Z,2.00
2019-01-25T12:07:50.968Z,1.70
2019-01-25T12:10:22.045Z,1.50
2019-01-25T12:12:50.472Z,1.20
2019-01-25T12:15:18.886Z,1.30
2019-01-25T12:17:47.299Z,1.10
2019-01-25T12:20:24.281Z,1.10
2019-01-25T12:22:52.698Z,1.20
2019-01-25T12:25:22.083Z,1.20
2019-01-25T12:27:50.516Z,1.10
2019-01-25T12:30:24.795Z,1.00
2019-01-25T12:32:53.214Z,1.00
2019-01-25T12:35:21.976Z,0.90
2019-01-25T12:37:50.386Z,1.00
2019-01-25T12:40:20.349Z,0.90
2019-01-25T12:42:48.906Z,1.00
2019-01-25T12:45:28.713Z,1.00
2019-01-25T12:47:57.213Z,1.00
2019-01-25T12:50:53.486Z,0.90
2019-01-25T12:53:22.425Z,0.90
2019-01-25T12:55:50.870Z,0.90
2019-01-25T12:58:19.284Z,1.00
2019-01-25T13:00:49.427Z,1.10
2019-01-25T13:03:17.828Z,1.40
2019-01-25T13:05:46.353Z,1.60
2019-01-25T13:08:14.771Z,1.70
2019-01-25T13:10:43.188Z,1.60
2019-01-25T13:13:11.612Z,1.90
2019-01-25T13:15:40.027Z,1.80
2019-01-25T13:18:08.467Z,1.70
2019-01-25T13:20:39.466Z,1.70
2019-01-25T13:23:07.154Z,1.80
2019-01-25T13:25:35.666Z,1.90
2019-01-25T13:28:04.236Z,1.80
2019-01-25T13:30:33.129Z,1.50
2019-01-25T13:33:01.610Z,1.40
2019-01-25T13:35:30.171Z,1.40
2019-01-25T13:37:58.670Z,1.20
2019-01-25T13:40:28.526Z,1.20
2019-01-25T13:42:56.992Z,1.00
2019-01-25T13:45:25.486Z,0.90
2019-01-25T13:47:54.263Z,0.80
2019-01-25T13:50:24.937Z,0.80
2019-01-25T13:52:53.351Z,0.80
2019-01-25T13:55:21.897Z,0.90
2019-01-25T13:57:50.309Z,0.90
2019-01-25T14:00:24.724Z,0.90
2019-01-25T14:02:53.463Z,0.90
2019-01-25T14:05:22.050Z,1.10
2019-01-25T14:07:50.639Z,1.40
2019-01-25T14:10:22.107Z,1.60
2019-01-25T14:12:50.572Z,1.60
2019-01-25T14:15:19.062Z,1.50
2019-01-25T14:17:47.532Z,1.30
2019-01-25T14:20:23.220Z,1.50
2019-01-25T14:22:48.751Z,2.10
2019-01-25T14:25:17.729Z,2.50
2019-01-25T14:27:46.167Z,2.80
2019-01-25T14:30:17.720Z,2.80
2019-01-25T14:32:46.139Z,2.90
2019-01-25T14:35:14.546Z,2.80
2019-01-25T14:37:42.978Z,2.70
2019-01-25T14:40:11.512Z,2.60
2019-01-25T14:42:39.927Z,2.50
2019-01-25T14:45:19.521Z,2.60
2019-01-25T14:47:48.285Z,2.50
2019-01-25T14:50:19.046Z,2.40
2019-01-25T14:52:47.516Z,2.40
2019-01-25T14:55:15.934Z,2.20
2019-01-25T14:57:44.337Z,2.10
2019-01-25T15:00:13.019Z,2.10
2019-01-25T15:02:41.524Z,2.10
2019-01-25T15:05:19.180Z,2.10
2019-01-25T15:07:47.685Z,2.00
2019-01-25T15:10:18.123Z,1.90
2019-01-25T15:12:47.287Z,1.70
2019-01-25T15:15:15.895Z,1.70
2019-01-25T15:17:44.405Z,1.70
2019-01-25T15:20:15.725Z,1.70
2019-01-25T15:22:44.134Z,1.70
2019-01-25T15:25:12.711Z,1.60
2019-01-25T15:27:41.206Z,1.50
2019-01-25T15:30:12.715Z,1.40
2019-01-25T15:32:41.231Z,1.20
2019-01-25T15:35:11.677Z,1.10
2019-01-25T15:37:40.068Z,1.00
2019-01-25T15:40:11.241Z,0.90
2019-01-25T15:42:39.803Z,0.80
2019-01-25T15:45:11.269Z,0.70
2019-01-25T15:47:39.673Z,0.60
2019-01-25T15:50:13.919Z,0.60
2019-01-25T15:52:42.417Z,0.70
2019-01-25T15:55:11.295Z,0.50
2019-01-25T15:57:39.706Z,0.30
2019-01-25T16:00:22.373Z,0.20
2019-01-25T16:02:50.853Z,0.00
2019-01-25T16:05:20.513Z,-0.10
2019-01-25T16:07:50.177Z,-0.20
2019-01-25T16:10:21.107Z,-0.20
2019-01-25T16:12:49.885Z,-0.30
2019-01-25T16:15:20.633Z,-0.30
2019-01-25T16:17:49.233Z,-0.50
2019-01-25T16:20:18.781Z,-0.60
2019-01-25T16:22:48.451Z,-0.60
2019-01-25T16:25:23.063Z,-0.30
2019-01-25T16:27:51.567Z,-0.50
2019-01-25T16:30:25.071Z,-0.70
2019-01-25T16:32:53.509Z,-0.70
2019-01-25T16:35:22.006Z,-0.80
2019-01-25T16:37:50.507Z,-0.90
2019-01-25T16:40:21.695Z,-1.10
2019-01-25T16:42:50.109Z,-1.10
2019-01-25T16:45:21.427Z,-1.10
2019-01-25T16:47:49.871Z,-1.20
2019-01-25T16:50:23.597Z,-1.20
2019-01-25T16:52:48.566Z,-1.20
2019-01-25T16:55:17.069Z,-1.20
2019-01-25T16:57:45.616Z,-1.20
2019-01-25T17:00:29.201Z,-1.00
2019-01-25T17:02:57.744Z,-1.10
2019-01-25T17:05:26.597Z,-1.00
2019-01-25T17:07:55.041Z,-1.00
2019-01-25T17:10:23.616Z,-1.00
2019-01-25T17:12:52.243Z,-1.10
2019-01-25T17:15:23.720Z,-1.10
2019-01-25T17:17:52.150Z,-1.10
2019-01-25T17:20:28.175Z,-1.20
2019-01-25T17:22:56.963Z,-1.20
2019-01-25T17:25:25.482Z,-1.30
2019-01-25T17:27:54.286Z,-1.20
2019-01-25T17:30:33.657Z,-1.10
2019-01-25T17:33:02.420Z,-1.20
2019-01-25T17:35:31.689Z,-1.30
2019-01-25T17:38:00.338Z,-1.30
2019-01-25T17:40:31.848Z,-1.40
2019-01-25T17:43:00.267Z,-1.40
2019-01-25T17:45:28.761Z,-1.40
2019-01-25T17:47:57.344Z,-1.50
2019-01-25T17:50:26.736Z,-1.50
2019-01-25T17:52:55.188Z,-1.50
2019-01-25T17:55:23.620Z,-1.50
2019-01-25T17:57:52.085Z,-1.50
2019-01-25T18:00:30.585Z,-1.40
2019-01-25T18:02:59.036Z,-1.30
2019-01-25T18:05:27.516Z,-1.30
2019-01-25T18:07:55.933Z,-1.30
2019-01-25T18:10:25.589Z,-1.30
2019-01-25T18:12:54.039Z,-1.20
2019-01-25T18:15:22.557Z,-1.20
2019-01-25T18:17:50.975Z,-1.10
2019-01-25T18:20:21.444Z,-0.90
2019-01-25T18:22:50.911Z,-0.90
2019-01-25T18:25:34.304Z,-0.90
2019-01-25T18:28:08.543Z,-0.80
2019-01-25T18:30:45.657Z,-0.80
2019-01-25T18:33:14.110Z,-0.80
2019-01-25T18:35:42.578Z,-0.80
2019-01-25T18:38:11.087Z,-0.80
2019-01-25T18:40:39.542Z,-0.80
2019-01-25T18:43:08.033Z,-0.90
2019-01-25T18:45:36.442Z,-0.90
2019-01-25T18:48:05.516Z,-0.90
2019-01-25T18:50:33.958Z,-0.90
2019-01-25T18:53:02.421Z,-0.80
2019-01-25T18:55:30.888Z,-0.80
2019-01-25T18:57:59.338Z,-0.70
2019-01-25T19:00:27.752Z,-0.80
2019-01-25T19:02:56.162Z,-0.80
2019-01-25T19:05:26.099Z,-0.80
2019-01-25T19:07:54.574Z,-0.80
2019-01-25T19:10:30.294Z,-0.70
2019-01-25T19:12:58.850Z,-0.80
2019-01-25T19:15:29.994Z,-0.80
2019-01-25T19:17:58.429Z,-0.80
2019-01-25T19:20:27.030Z,-0.80
2019-01-25T19:22:55.474Z,-0.80
2019-01-25T19:25:23.980Z,-0.80
2019-01-25T19:27:52.405Z,-0.80
2019-01-25T19:30:32.806Z,-0.70
2019-01-25T19:33:01.299Z,-0.70
2019-01-25T19:35:29.775Z,-0.70
2019-01-25T19:37:58.752Z,-0.60
2019-01-25T19:40:30.166Z,-0.60
2019-01-25T19:42:58.785Z,-0.60
2019-01-25T19:45:27.448Z,-0.60
2019-01-25T19:47:56.028Z,-0.70
2019-01-25T19:50:24.504Z,-0.70
2019-01-25T19:52:53.253Z,-0.60
2019-01-25T19:55:27.577Z,-0.60
2019-01-25T19:57:56.859Z,-0.60
2019-01-25T20:00:43.337Z,-0.70
2019-01-25T20:03:11.750Z,-0.70
2019-01-25T20:05:40.178Z,-0.70
2019-01-25T20:08:08.671Z,-0.70
2019-01-25T20:10:37.155Z,-0.70
2019-01-25T20:13:06.555Z,-0.70
2019-01-25T20:15:34.972Z,-0.60
2019-01-25T20:18:03.470Z,-0.60
2019-01-25T20:20:36.604Z,-0.40
2019-01-25T20:23:05.563Z,-0.50
2019-01-25T20:25:34.082Z,-0.50
2019-01-25T20:28:03.176Z,-0.40
2019-01-25T20:30:32.927Z,-0.40
2019-01-25T20:33:03.013Z,-0.40
2019-01-25T20:35:33.585Z,-0.40
2019-01-25T20:38:02.001Z,-0.30
2019-01-25T20:40:30.423Z,-0.20
2019-01-25T20:42:58.904Z,-0.10
2019-01-25T20:45:35.982Z,-0.10
2019-01-25T20:48:05.033Z,-0.10
2019-01-25T20:50:35.281Z,-0.10
2019-01-25T20:53:04.511Z,-0.10
2019-01-25T20:55:33.016Z,-0.10
2019-01-25T20:58:01.507Z,-0.20
2019-01-25T21:00:32.550Z,-0.20
2019-01-25T21:03:01.196Z,-0.20
2019-01-25T21:05:29.761Z,-0.20
2019-01-25T21:07:58.323Z,-0.30
2019-01-25T21:10:27.019Z,-0.20
2019-01-25T21:12:55.507Z,-0.20
2019-01-25T21:15:35.089Z,-0.10
2019-01-25T21:17:58.435Z,-0.10
2019-01-25T21:20:32.209Z,0.00
2019-01-25T21:23:00.774Z,0.00
2019-01-25T21:25:29.304Z,0.00
2019-01-25T21:27:57.758Z,-0.10
2019-01-25T21:30:31.695Z,0.00
2019-01-25T21:33:00.129Z,0.00
2019-01-25T21:35:28.558Z,0.00
2019-01-25T21:37:57.076Z,0.00
2019-01-25T21:40:30.502Z,0.10
2019-01-25T21:42:59.056Z,0.00
2019-01-25T21:45:29.815Z,0.10
2019-01-25T21:47:58.501Z,0.10
2019-01-25T21:50:32.549Z,0.20
2019-01-25T21:53:01.013Z,0.20
2019-01-25T21:55:29.525Z,0.10
2019-01-25T21:57:57.928Z,0.20
2019-01-25T22:00:28.772Z,0.30
2019-01-25T22:02:57.200Z,0.20
2019-01-25T22:05:26.707Z,0.30
2019-01-25T22:07:55.215Z,0.30
2019-01-25T22:10:26.701Z,0.50
2019-01-25T22:12:55.183Z,0.40
2019-01-25T22:15:23.694Z,0.40
2019-01-25T22:17:52.245Z,0.50
2019-01-25T22:20:26.526Z,0.50
2019-01-25T22:22:55.269Z,0.50
2019-01-25T22:25:24.151Z,0.40
2019-01-25T22:27:53.798Z,0.40
2019-01-25T22:30:27.456Z,0.40
2019-01-25T22:32:56.083Z,0.60
2019-01-25T22:35:24.737Z,0.70
2019-01-25T22:37:53.442Z,0.70
2019-01-25T22:40:26.932Z,0.80
2019-01-25T22:42:55.421Z,0.80
2019-01-25T22:45:25.971Z,0.90
2019-01-25T22:47:55.340Z,1.00
2019-01-25T22:50:25.993Z,1.10
2019-01-25T22:52:54.564Z,1.10
2019-01-25T22:55:23.608Z,1.10
2019-01-25T22:57:55.740Z,1.20
2019-01-25T23:00:48.144Z,1.20
2019-01-25T23:03:28.447Z,1.30
2019-01-25T23:06:17.576Z,1.30
2019-01-25T23:08:46.058Z,1.40
2019-01-25T23:11:14.492Z,1.40
2019-01-25T23:13:42.963Z,1.50
2019-01-25T23:16:21.178Z,1.40
2019-01-25T23:18:51.564Z,1.40
2019-01-25T23:21:20.098Z,1.50
2019-01-25T23:23:48.548Z,1.50
2019-01-25T23:26:16.984Z,1.50
2019-01-25T23:28:45.428Z,1.60
2019-01-25T23:31:13.898Z,1.60
2019-01-25T23:33:42.431Z,1.70
2019-01-25T23:36:10.888Z,1.70
2019-01-25T23:38:39.410Z,1.80
2019-01-25T23:41:07.855Z,1.80
2019-01-25T23:43:36.376Z,2.00
2019-01-25T23:46:04.995Z,1.90
2019-01-25T23:48:33.589Z,1.90
2019-01-25T23:51:02.132Z,1.90
2019-01-25T23:53:30.582Z,2.00
2019-01-25T23:55:59.102Z,2.00
2019-01-25T23:58:29.585Z,2.00
